Time;durP1;ratioP1;P1;durP2;ratioP2;P2;SDS_P1;SDS_P2;PMS_P1;PMS_P2;Temp;Humidity;BMP_temperature;BMP_pressure;BME280_temperature;BME280_humidity;BME280_pressure;Samples;Min_cycle;Max_cycle;Signal;HPM_P1;HPM_P2
2023/09/17 00:01:59;;;;;;;7.10;5.05;;;;;;;;;;6187896;23;20021;-90
2023/09/17 00:04:26;;;;;;;5.93;5.35;;;;;;;;;;6214129;23;20013;-90
2023/09/17 00:06:53;;;;;;;11.38;5.70;;;;;;;;;;6187025;23;20023;-90
2023/09/17 00:09:24;;;;;;;6.85;5.82;;;;;;;;;;6187622;23;20013;-90
2023/09/17 00:11:54;;;;;;;7.97;5.68;;;;;;;;;;6187225;23;20030;-90
2023/09/17 00:14:24;;;;;;;9.05;5.53;;;;;;;;;;6162676;23;20027;-90
2023/09/17 00:16:51;;;;;;;6.07;4.95;;;;;;;;;;6162121;23;20023;-90
2023/09/17 00:19:19;;;;;;;8.43;5.55;;;;;;;;;;6162808;23;20020;-90
2023/09/17 00:21:46;;;;;;;5.72;5.18;;;;;;;;;;6188028;23;20013;-90
2023/09/17 00:24:14;;;;;;;5.47;4.97;;;;;;;;;;6162378;23;20020;-90
2023/09/17 00:26:42;;;;;;;6.57;5.60;;;;;;;;;;6187819;23;20020;-91
2023/09/17 00:29:13;;;;;;;7.35;5.32;;;;;;;;;;6162690;23;20047;-90
2023/09/17 00:31:40;;;;;;;6.38;5.68;;;;;;;;;;6213879;23;20020;-89
2023/09/17 00:34:08;;;;;;;5.25;4.70;;;;;;;;;;6187046;23;20482;-90
2023/09/17 00:36:37;;;;;;;7.57;6.43;;;;;;;;;;6187341;23;20028;-89
2023/09/17 00:39:05;;;;;;;10.02;6.35;;;;;;;;;;6162411;23;20505;-90
2023/09/17 00:41:32;;;;;;;5.85;5.28;;;;;;;;;;6162068;23;20036;-90
2023/09/17 00:44:02;;;;;;;11.32;5.70;;;;;;;;;;6162446;23;20032;-90
2023/09/17 00:46:32;;;;;;;7.30;6.53;;;;;;;;;;6198076;23;20360;-90
2023/09/17 00:49:01;;;;;;;7.35;6.65;;;;;;;;;;6185383;23;20016;-89
2023/09/17 00:51:30;;;;;;;7.65;6.82;;;;;;;;;;6161348;23;20355;-90
2023/09/17 00:54:05;;;;;;;6.07;5.38;;;;;;;;;;6196946;23;20352;-90
2023/09/17 00:56:32;;;;;;;6.75;6.05;;;;;;;;;;6162866;23;20020;-89
2023/09/17 00:59:02;;;;;;;7.28;6.57;;;;;;;;;;6161405;23;20017;-89
2023/09/17 01:01:30;;;;;;;6.40;5.57;;;;;;;;;;6186094;23;20024;-90
2023/09/17 01:04:03;;;;;;;6.72;5.63;;;;;;;;;;6186041;23;20032;-91
2023/09/17 01:06:32;;;;;;;7.20;5.43;;;;;;;;;;6197065;23;20028;-90
2023/09/17 01:09:00;;;;;;;6.03;4.80;;;;;;;;;;6161507;23;20021;-89
2023/09/17 01:11:28;;;;;;;9.30;5.32;;;;;;;;;;6161789;23;20020;-90
2023/09/17 01:14:08;;;;;;;6.97;6.35;;;;;;;;;;6137675;23;20498;-89
2023/09/17 01:16:41;;;;;;;6.28;5.60;;;;;;;;;;6163124;23;20032;-91
2023/09/17 01:19:10;;;;;;;7.10;5.55;;;;;;;;;;6161652;23;20013;-90
2023/09/17 01:21:40;;;;;;;8.45;7.50;;;;;;;;;;6161337;23;20027;-90
2023/09/17 01:24:17;;;;;;;6.20;5.70;;;;;;;;;;6186799;23;20013;-90
2023/09/17 01:26:46;;;;;;;12.68;6.25;;;;;;;;;;6162571;23;20019;-90
2023/09/17 01:29:22;;;;;;;7.40;6.53;;;;;;;;;;6186053;23;20016;-89
2023/09/17 01:31:54;;;;;;;13.05;5.40;;;;;;;;;;6186291;23;20454;-90
2023/09/17 01:34:24;;;;;;;8.48;5.60;;;;;;;;;;6162874;23;20028;-90
2023/09/17 01:36:53;;;;;;;6.22;5.63;;;;;;;;;;6162529;23;20688;-90
2023/09/17 01:39:29;;;;;;;9.13;6.95;;;;;;;;;;6163184;23;20072;-91
2023/09/17 01:41:59;;;;;;;6.95;5.57;;;;;;;;;;6162358;23;20028;-90
2023/09/17 01:44:29;;;;;;;11.70;5.35;;;;;;;;;;6186001;23;20024;-90
2023/09/17 01:46:57;;;;;;;12.30;6.10;;;;;;;;;;6161858;23;20494;-89
2023/09/17 01:49:24;;;;;;;7.38;5.57;;;;;;;;;;6186127;23;20486;-90
2023/09/17 01:51:53;;;;;;;5.82;4.97;;;;;;;;;;6186371;23;20020;-89
2023/09/17 01:54:20;;;;;;;7.53;6.05;;;;;;;;;;6186605;23;20475;-90
2023/09/17 01:56:48;;;;;;;6.95;6.30;;;;;;;;;;6160973;23;20012;-91
2023/09/17 01:59:15;;;;;;;5.72;5.22;;;;;;;;;;6186609;23;20017;-92
2023/09/17 02:01:44;;;;;;;6.55;5.53;;;;;;;;;;6186111;23;20351;-89
2023/09/17 02:04:12;;;;;;;7.78;6.00;;;;;;;;;;6186428;23;20008;-89
2023/09/17 02:06:39;;;;;;;8.02;5.68;;;;;;;;;;6186526;23;20013;-89
2023/09/17 02:09:09;;;;;;;6.80;5.60;;;;;;;;;;6160557;23;20017;-89
2023/09/17 02:11:36;;;;;;;8.63;6.57;;;;;;;;;;6160897;23;20017;-90
2023/09/17 02:14:03;;;;;;;9.40;6.47;;;;;;;;;;6196681;23;20020;-90
2023/09/17 02:16:33;;;;;;;5.75;5.15;;;;;;;;;;6162399;23;20490;-90
2023/09/17 02:19:05;;;;;;;6.32;5.72;;;;;;;;;;6185977;23;20017;-90
2023/09/17 02:21:34;;;;;;;6.35;5.75;;;;;;;;;;6160908;23;20359;-91
2023/09/17 02:24:04;;;;;;;7.68;5.25;;;;;;;;;;6186401;23;20108;-90
2023/09/17 02:26:31;;;;;;;9.15;6.00;;;;;;;;;;6186974;23;20016;-90
2023/09/17 02:29:01;;;;;;;8.40;6.25;;;;;;;;;;6162341;23;20610;-89
2023/09/17 02:31:28;;;;;;;7.63;6.93;;;;;;;;;;6161357;23;20017;-89
2023/09/17 02:33:56;;;;;;;11.57;6.30;;;;;;;;;;6160493;23;20021;-89
2023/09/17 02:36:36;;;;;;;7.22;6.53;;;;;;;;;;6161958;23;20021;-90
2023/09/17 02:39:06;;;;;;;6.50;5.90;;;;;;;;;;6161037;23;20017;-89
2023/09/17 02:41:35;;;;;;;7.15;5.78;;;;;;;;;;6161641;23;20017;-90
2023/09/17 02:44:03;;;;;;;9.13;7.72;;;;;;;;;;6212413;23;20079;-89
2023/09/17 02:46:30;;;;;;;8.43;6.80;;;;;;;;;;6162168;23;20363;-90
2023/09/17 02:48:58;;;;;;;7.00;5.65;;;;;;;;;;6186319;23;20027;-90
2023/09/17 02:51:28;;;;;;;7.30;5.05;;;;;;;;;;6162036;23;20016;-90
2023/09/17 02:53:55;;;;;;;8.30;6.10;;;;;;;;;;6186126;23;20024;-88
2023/09/17 02:56:22;;;;;;;7.25;5.78;;;;;;;;;;6170858;23;20042;-89
2023/09/17 02:58:50;;;;;;;12.05;6.20;;;;;;;;;;6170957;23;20020;-89
2023/09/17 03:01:18;;;;;;;6.25;5.65;;;;;;;;;;6170600;23;20019;-90
2023/09/17 03:03:46;;;;;;;6.63;5.90;;;;;;;;;;6161074;23;20016;-90
2023/09/17 03:06:13;;;;;;;7.13;5.30;;;;;;;;;;6160565;23;20028;-90
2023/09/17 03:08:43;;;;;;;5.45;4.95;;;;;;;;;;6161308;23;20016;-90
2023/09/17 03:11:15;;;;;;;6.72;5.15;;;;;;;;;;6161257;23;20017;-89
2023/09/17 03:13:46;;;;;;;7.25;4.90;;;;;;;;;;6161676;23;20016;-89
2023/09/17 03:16:16;;;;;;;6.65;5.82;;;;;;;;;;6186205;23;20020;-89
2023/09/17 03:18:44;;;;;;;7.88;5.47;;;;;;;;;;6160919;23;20017;-90
2023/09/17 03:21:12;;;;;;;5.65;4.65;;;;;;;;;;6161547;23;20485;-92
2023/09/17 03:23:43;;;;;;;7.78;5.65;;;;;;;;;;6161106;23;20028;-89
2023/09/17 03:26:11;;;;;;;5.57;5.07;;;;;;;;;;6161362;23;20023;-90
2023/09/17 03:28:41;;;;;;;6.78;5.35;;;;;;;;;;6160703;23;20017;-89
2023/09/17 03:31:11;;;;;;;8.57;6.78;;;;;;;;;;6185762;23;20024;-89
2023/09/17 03:33:39;;;;;;;9.32;6.57;;;;;;;;;;6160719;23;20071;-89
2023/09/17 03:36:06;;;;;;;6.32;5.68;;;;;;;;;;6160841;23;20039;-89
2023/09/17 03:38:34;;;;;;;5.13;4.63;;;;;;;;;;6185672;23;20028;-90
2023/09/17 03:41:04;;;;;;;5.03;4.57;;;;;;;;;;6161842;23;20013;-89
2023/09/17 03:43:36;;;;;;;7.22;6.47;;;;;;;;;;6196592;23;20359;-89
2023/09/17 03:46:06;;;;;;;8.65;5.28;;;;;;;;;;6161455;23;20023;-89
2023/09/17 03:48:33;;;;;;;5.82;5.30;;;;;;;;;;6160084;23;20028;-90
2023/09/17 03:51:04;;;;;;;8.75;5.60;;;;;;;;;;6161217;23;20016;-90
2023/09/17 03:53:32;;;;;;;10.63;6.15;;;;;;;;;;6185725;23;20020;-90
2023/09/17 03:56:00;;;;;;;10.77;6.00;;;;;;;;;;6160867;23;20021;-89
2023/09/17 03:58:30;;;;;;;9.55;7.78;;;;;;;;;;6159206;23;20016;-89
2023/09/17 04:00:58;;;;;;;7.15;6.30;;;;;;;;;;6191310;23;20009;-89
2023/09/17 04:03:28;;;;;;;6.10;5.20;;;;;;;;;;6160783;23;20016;-89
2023/09/17 04:05:55;;;;;;;7.18;5.88;;;;;;;;;;6186126;23;20476;-89
2023/09/17 04:08:25;;;;;;;5.65;4.95;;;;;;;;;;6161058;23;20020;-89
2023/09/17 04:10:54;;;;;;;6.22;5.10;;;;;;;;;;6184818;23;20013;-89
2023/09/17 04:13:21;;;;;;;6.88;5.90;;;;;;;;;;6185567;23;20016;-90
2023/09/17 04:15:53;;;;;;;6.38;4.75;;;;;;;;;;6161304;23;20020;-89
2023/09/17 04:18:20;;;;;;;6.15;5.55;;;;;;;;;;6187766;23;20025;-89
2023/09/17 04:20:48;;;;;;;5.65;4.10;;;;;;;;;;6162261;23;20036;-90
2023/09/17 04:23:18;;;;;;;7.05;5.15;;;;;;;;;;6188247;23;20383;-89
2023/09/17 04:25:49;;;;;;;6.65;6.00;;;;;;;;;;6162672;23;20028;-89
2023/09/17 04:28:19;;;;;;;5.13;4.25;;;;;;;;;;6162698;23;20024;-89
2023/09/17 04:30:46;;;;;;;5.28;4.78;;;;;;;;;;6162014;23;20016;-90
2023/09/17 04:33:20;;;;;;;7.55;5.10;;;;;;;;;;6163120;23;20028;-89
2023/09/17 04:35:50;;;;;;;7.80;5.05;;;;;;;;;;6197895;23;20016;-89
2023/09/17 04:38:20;;;;;;;7.43;5.97;;;;;;;;;;6162114;23;20020;-90
2023/09/17 04:40:48;;;;;;;6.05;5.45;;;;;;;;;;6161841;23;20019;-90
2023/09/17 04:43:16;;;;;;;6.18;5.57;;;;;;;;;;6162213;23;20020;-89
2023/09/17 04:45:44;;;;;;;15.77;6.43;;;;;;;;;;6187819;23;20017;-90
2023/09/17 04:48:33;;;;;;;7.07;5.68;;;;;;;;;;6214187;23;20017;-89
2023/09/17 04:51:00;;;;;;;6.38;5.00;;;;;;;;;;6193829;23;20013;-91
2023/09/17 04:53:31;;;;;;;6.72;5.53;;;;;;;;;;6190623;23;20028;-90
2023/09/17 04:55:59;;;;;;;6.47;5.75;;;;;;;;;;6164332;23;20024;-89
2023/09/17 04:58:34;;;;;;;11.02;6.00;;;;;;;;;;6162719;23;20020;-90
2023/09/17 05:01:04;;;;;;;8.93;5.57;;;;;;;;;;6192227;23;20455;-90
2023/09/17 05:03:33;;;;;;;14.15;6.25;;;;;;;;;;6161691;23;20017;-90
2023/09/17 05:06:01;;;;;;;5.20;4.70;;;;;;;;;;6162309;23;20017;-89
2023/09/17 05:08:29;;;;;;;10.15;5.50;;;;;;;;;;6162166;23;20016;-89
2023/09/17 05:10:57;;;;;;;6.80;5.45;;;;;;;;;;6162195;23;20023;-89
2023/09/17 05:13:27;;;;;;;5.80;5.22;;;;;;;;;;6161041;23;20020;-90
2023/09/17 05:15:55;;;;;;;7.07;6.03;;;;;;;;;;6162035;23;20529;-90
2023/09/17 05:18:23;;;;;;;8.65;5.28;;;;;;;;;;6162008;23;20016;-89
2023/09/17 05:20:55;;;;;;;7.63;5.60;;;;;;;;;;6194449;23;20017;-90
2023/09/17 05:23:25;;;;;;;6.97;5.10;;;;;;;;;;6196005;23;20027;-90
2023/09/17 05:26:05;;;;;;;8.95;5.40;;;;;;;;;;6162431;23;20395;-90
2023/09/17 05:28:35;;;;;;;6.45;5.85;;;;;;;;;;6161870;23;20055;-90
2023/09/17 05:31:07;;;;;;;8.00;5.63;;;;;;;;;;6187683;23;20016;-89
2023/09/17 05:33:37;;;;;;;6.68;5.93;;;;;;;;;;6161593;23;20344;-90
2023/09/17 05:36:07;;;;;;;6.85;5.40;;;;;;;;;;6186780;23;20040;-90
2023/09/17 05:38:35;;;;;;;7.45;6.25;;;;;;;;;;6161895;23;20067;-90
2023/09/17 05:41:03;;;;;;;5.80;4.88;;;;;;;;;;6161943;23;20020;-89
2023/09/17 05:43:31;;;;;;;5.57;4.63;;;;;;;;;;6161442;23;20020;-90
2023/09/17 05:46:01;;;;;;;6.10;5.32;;;;;;;;;;6161627;23;20021;-89
2023/09/17 05:48:36;;;;;;;6.88;5.60;;;;;;;;;;6161642;23;20020;-90
2023/09/17 05:51:07;;;;;;;6.50;5.68;;;;;;;;;;6162172;23;20071;-89
2023/09/17 05:53:38;;;;;;;5.40;4.90;;;;;;;;;;6161163;23;20021;-90
2023/09/17 05:56:07;;;;;;;6.20;5.57;;;;;;;;;;6186212;23;20012;-90
2023/09/17 05:58:35;;;;;;;7.43;5.18;;;;;;;;;;6186562;23;20016;-89
2023/09/17 06:01:05;;;;;;;5.47;4.43;;;;;;;;;;6185043;23;20031;-89
2023/09/17 06:03:36;;;;;;;5.60;4.80;;;;;;;;;;6186552;23;20020;-90
2023/09/17 06:06:04;;;;;;;4.63;4.22;;;;;;;;;;6159801;23;20031;-89
2023/09/17 06:08:35;;;;;;;9.48;4.63;;;;;;;;;;6191693;23;20020;-90
2023/09/17 06:11:06;;;;;;;5.18;4.13;;;;;;;;;;6160076;23;20031;-89
2023/09/17 06:13:34;;;;;;;4.60;3.88;;;;;;;;;;6160938;23;20499;-90
2023/09/17 06:16:02;;;;;;;5.65;4.55;;;;;;;;;;6160230;23;20029;-89
2023/09/17 06:18:32;;;;;;;5.85;4.55;;;;;;;;;;6160916;23;20566;-90
2023/09/17 06:21:00;;;;;;;5.85;4.03;;;;;;;;;;6161270;23;20028;-90
2023/09/17 06:23:28;;;;;;;5.95;4.05;;;;;;;;;;6160753;23;20012;-90
2023/09/17 06:26:00;;;;;;;4.93;4.43;;;;;;;;;;6157585;23;20024;-90
2023/09/17 06:28:30;;;;;;;5.77;5.17;;;;;;;;;;6158242;23;20023;-90
2023/09/17 06:30:57;;;;;;;9.77;4.65;;;;;;;;;;6160986;23;20020;-90
2023/09/17 06:33:25;;;;;;;6.95;4.47;;;;;;;;;;6161124;23;20039;-90
2023/09/17 06:35:53;;;;;;;8.63;4.72;;;;;;;;;;6159300;23;20487;-90
2023/09/17 06:38:23;;;;;;;6.55;4.32;;;;;;;;;;6159548;23;20618;-90
2023/09/17 06:40:52;;;;;;;4.20;3.80;;;;;;;;;;6159423;23;20363;-90
2023/09/17 06:43:20;;;;;;;4.38;3.65;;;;;;;;;;6185096;23;20013;-90
2023/09/17 06:45:48;;;;;;;7.05;5.45;;;;;;;;;;6185636;23;20013;-91
2023/09/17 06:48:18;;;;;;;4.40;4.00;;;;;;;;;;6160133;23;20017;-90
2023/09/17 06:50:45;;;;;;;5.70;4.43;;;;;;;;;;6158603;23;20020;-90
2023/09/17 06:53:12;;;;;;;5.13;3.95;;;;;;;;;;6209488;23;20012;-90
2023/09/17 06:55:40;;;;;;;5.72;4.88;;;;;;;;;;6160336;23;20020;-90
2023/09/17 06:58:08;;;;;;;5.45;3.58;;;;;;;;;;6185142;23;20039;-92
2023/09/17 07:00:40;;;;;;;5.28;4.10;;;;;;;;;;6160406;23;20028;-90
2023/09/17 07:03:07;;;;;;;4.97;4.40;;;;;;;;;;6185187;23;20009;-90
2023/09/17 07:05:35;;;;;;;4.50;3.95;;;;;;;;;;6185525;23;20017;-91
2023/09/17 07:08:02;;;;;;;6.22;4.80;;;;;;;;;;6159972;23;20016;-90
2023/09/17 07:10:29;;;;;;;6.68;5.30;;;;;;;;;;6185458;23;20043;-90
2023/09/17 07:12:57;;;;;;;7.15;5.32;;;;;;;;;;6160698;23;20016;-90
2023/09/17 07:15:27;;;;;;;4.32;3.92;;;;;;;;;;6186030;23;20020;-90
2023/09/17 07:17:56;;;;;;;4.47;4.10;;;;;;;;;;6185587;23;20028;-91
2023/09/17 07:20:23;;;;;;;4.97;4.55;;;;;;;;;;6185547;23;20023;-91
2023/09/17 07:22:50;;;;;;;4.50;4.10;;;;;;;;;;6184915;23;20023;-91
2023/09/17 07:25:20;;;;;;;5.25;4.30;;;;;;;;;;6184555;23;20072;-91
2023/09/17 07:27:47;;;;;;;8.32;4.50;;;;;;;;;;6185226;23;20020;-91
2023/09/17 07:30:17;;;;;;;5.35;4.85;;;;;;;;;;6185563;23;20027;-90
2023/09/17 07:32:44;;;;;;;4.78;4.30;;;;;;;;;;6222471;23;20013;-91
2023/09/17 07:35:13;;;;;;;4.85;4.35;;;;;;;;;;6185250;23;20467;-90
2023/09/17 07:37:40;;;;;;;6.28;3.72;;;;;;;;;;6222114;23;20024;-92
2023/09/17 07:40:09;;;;;;;4.70;4.30;;;;;;;;;;6184723;23;20020;-90
2023/09/17 07:42:36;;;;;;;6.88;4.32;;;;;;;;;;6160141;23;20304;-90
2023/09/17 07:45:04;;;;;;;5.00;4.20;;;;;;;;;;6161425;23;20356;-91
2023/09/17 07:47:32;;;;;;;4.55;4.07;;;;;;;;;;6183497;23;20024;-90
2023/09/17 07:50:01;;;;;;;6.25;4.25;;;;;;;;;;6185317;23;20020;-90
2023/09/17 07:52:33;;;;;;;5.82;5.32;;;;;;;;;;6186418;23;20028;-90
2023/09/17 07:55:00;;;;;;;6.35;4.82;;;;;;;;;;6186633;23;20016;-91
2023/09/17 07:57:28;;;;;;;8.27;4.15;;;;;;;;;;6161381;23;20399;-90
2023/09/17 07:59:56;;;;;;;5.32;4.30;;;;;;;;;;6213595;23;20040;-90
2023/09/17 08:02:26;;;;;;;5.25;4.80;;;;;;;;;;6160995;23;20039;-90
2023/09/17 08:04:54;;;;;;;6.25;4.63;;;;;;;;;;6186588;23;20073;-91
2023/09/17 08:07:22;;;;;;;5.22;4.72;;;;;;;;;;6186083;23;20013;-90
2023/09/17 08:09:51;;;;;;;4.88;4.38;;;;;;;;;;6161179;23;20020;-91
2023/09/17 08:12:18;;;;;;;8.18;5.35;;;;;;;;;;6185794;23;20021;-91
2023/09/17 08:14:46;;;;;;;7.78;4.93;;;;;;;;;;6160797;23;20032;-91
2023/09/17 08:17:14;;;;;;;7.00;4.47;;;;;;;;;;6185860;23;20522;-92
2023/09/17 08:19:41;;;;;;;5.80;5.30;;;;;;;;;;6187059;23;20471;-91
2023/09/17 08:22:08;;;;;;;7.68;5.38;;;;;;;;;;6186065;23;20019;-92
2023/09/17 08:24:57;;;;;;;6.43;4.10;;;;;;;;;;6190582;23;20610;-91
2023/09/17 08:27:45;;;;;;;5.07;4.57;;;;;;;;;;6192025;23;20021;-92
2023/09/17 08:30:32;;;;;;;6.07;5.15;;;;;;;;;;6192905;23;20367;-91
2023/09/17 08:33:22;;;;;;;5.80;5.05;;;;;;;;;;6193106;23;20021;-91
2023/09/17 08:36:08;;;;;;;6.88;6.00;;;;;;;;;;6168695;23;20028;-91
2023/09/17 08:38:38;;;;;;;5.82;5.22;;;;;;;;;;6197923;23;20024;-91
2023/09/17 08:41:07;;;;;;;6.05;4.90;;;;;;;;;;6162989;23;20026;-92
2023/09/17 08:43:35;;;;;;;5.30;4.88;;;;;;;;;;6186524;23;20032;-92
2023/09/17 08:46:07;;;;;;;5.25;4.85;;;;;;;;;;6186467;23;20031;-91
2023/09/17 08:48:36;;;;;;;7.15;4.85;;;;;;;;;;6186239;23;20017;-91
2023/09/17 08:51:09;;;;;;;5.85;4.68;;;;;;;;;;6192079;23;20013;-91
2023/09/17 08:53:41;;;;;;;7.05;4.95;;;;;;;;;;6161415;23;20460;-91
2023/09/17 08:56:14;;;;;;;6.37;4.90;;;;;;;;;;6196997;23;20608;-91
2023/09/17 08:58:48;;;;;;;5.50;5.10;;;;;;;;;;6161091;23;20032;-91
2023/09/17 09:01:16;;;;;;;6.25;5.65;;;;;;;;;;6190656;23;20017;-91
2023/09/17 09:03:45;;;;;;;5.70;5.20;;;;;;;;;;6213257;23;20343;-90
2023/09/17 09:06:14;;;;;;;8.45;5.57;;;;;;;;;;6186647;23;20009;-92
2023/09/17 09:08:45;;;;;;;5.82;4.80;;;;;;;;;;6186671;23;20020;-90
2023/09/17 09:11:14;;;;;;;5.70;5.10;;;;;;;;;;6187558;23;20013;-91
2023/09/17 09:13:42;;;;;;;5.45;4.93;;;;;;;;;;6184760;23;20043;-90
2023/09/17 09:16:09;;;;;;;8.85;4.88;;;;;;;;;;6186682;23;20593;-90
2023/09/17 09:18:39;;;;;;;4.95;4.55;;;;;;;;;;6196234;23;20013;-90
2023/09/17 09:21:07;;;;;;;8.00;4.85;;;;;;;;;;6186430;23;20017;-90
2023/09/17 09:23:34;;;;;;;6.13;4.80;;;;;;;;;;6162028;23;20013;-90
2023/09/17 09:26:03;;;;;;;4.97;4.53;;;;;;;;;;6160783;23;20020;-90
2023/09/17 09:28:32;;;;;;;8.18;4.07;;;;;;;;;;6184888;23;20028;-90
2023/09/17 09:31:00;;;;;;;5.82;3.67;;;;;;;;;;6213475;23;20482;-91
2023/09/17 09:33:27;;;;;;;5.05;4.10;;;;;;;;;;6185558;23;20027;-90
2023/09/17 09:35:59;;;;;;;3.92;3.25;;;;;;;;;;6160835;23;20511;-90
2023/09/17 09:38:29;;;;;;;3.50;3.20;;;;;;;;;;6196004;23;20017;-91
2023/09/17 09:40:56;;;;;;;3.97;3.65;;;;;;;;;;6186429;23;20013;-90
2023/09/17 09:43:32;;;;;;;3.60;3.35;;;;;;;;;;6185419;23;20008;-90
2023/09/17 09:46:04;;;;;;;4.47;4.07;;;;;;;;;;6161575;23;20013;-91
2023/09/17 09:48:37;;;;;;;4.07;3.75;;;;;;;;;;6185794;23;20023;-91
2023/09/17 09:51:09;;;;;;;5.68;4.38;;;;;;;;;;6161034;23;20395;-90
2023/09/17 09:53:37;;;;;;;5.05;3.75;;;;;;;;;;6135970;23;20013;-91
2023/09/17 09:56:07;;;;;;;4.13;3.55;;;;;;;;;;6185947;23;20035;-90
2023/09/17 09:58:45;;;;;;;4.40;3.47;;;;;;;;;;6195349;23;20329;-91
2023/09/17 10:01:17;;;;;;;4.93;3.75;;;;;;;;;;6186128;23;20017;-91
2023/09/17 10:03:47;;;;;;;4.22;3.83;;;;;;;;;;6195636;23;20806;-90
2023/09/17 10:06:19;;;;;;;5.60;3.38;;;;;;;;;;6161109;23;20032;-90
2023/09/17 10:08:47;;;;;;;5.60;4.18;;;;;;;;;;6212942;23;20027;-91
2023/09/17 10:11:18;;;;;;;3.60;3.25;;;;;;;;;;6184891;23;20016;-91
2023/09/17 10:13:47;;;;;;;3.95;3.58;;;;;;;;;;6186019;23;20474;-91
2023/09/17 10:16:30;;;;;;;4.75;3.58;;;;;;;;;;6185559;23;20017;-90
2023/09/17 10:18:59;;;;;;;6.15;3.58;;;;;;;;;;6185770;23;20024;-92
2023/09/17 10:21:33;;;;;;;3.75;3.42;;;;;;;;;;6186491;23;20020;-93
2023/09/17 10:24:01;;;;;;;6.55;3.65;;;;;;;;;;6186552;23;20021;-91
2023/09/17 10:26:35;;;;;;;6.07;3.63;;;;;;;;;;6212425;23;20020;-91
2023/09/17 10:29:04;;;;;;;3.90;3.40;;;;;;;;;;6195855;23;20019;-93
2023/09/17 10:31:32;;;;;;;4.32;3.53;;;;;;;;;;6161060;23;20021;-90
2023/09/17 10:34:02;;;;;;;4.07;3.60;;;;;;;;;;6160229;23;20020;-91
2023/09/17 10:36:34;;;;;;;6.93;4.05;;;;;;;;;;6186359;23;20024;-90
2023/09/17 10:39:03;;;;;;;5.15;3.55;;;;;;;;;;6184568;23;20359;-93
2023/09/17 10:41:32;;;;;;;3.83;3.40;;;;;;;;;;6185271;23;20043;-90
2023/09/17 10:44:00;;;;;;;4.45;3.28;;;;;;;;;;6186683;23;20876;-94
2023/09/17 10:46:32;;;;;;;4.40;3.05;;;;;;;;;;6185656;23;20023;-92
2023/09/17 10:49:00;;;;;;;7.35;3.30;;;;;;;;;;6161467;23;20016;-94
2023/09/17 10:51:30;;;;;;;4.63;3.78;;;;;;;;;;6212293;23;20017;-90
2023/09/17 10:53:58;;;;;;;3.70;3.17;;;;;;;;;;6160690;23;20024;-91
2023/09/17 10:56:26;;;;;;;5.25;3.85;;;;;;;;;;6212322;23;20016;-91
2023/09/17 10:58:57;;;;;;;4.95;3.17;;;;;;;;;;6161798;23;20025;-91
2023/09/17 11:01:27;;;;;;;4.72;3.15;;;;;;;;;;6160447;23;20024;-92
2023/09/17 11:04:01;;;;;;;3.55;3.20;;;;;;;;;;6186462;23;20020;-91
2023/09/17 11:06:30;;;;;;;7.20;3.67;;;;;;;;;;6222812;23;20013;-91
2023/09/17 11:08:57;;;;;;;7.15;3.42;;;;;;;;;;6160162;23;20016;-91
2023/09/17 11:11:27;;;;;;;5.03;3.47;;;;;;;;;;6212860;23;20037;-91
2023/09/17 11:13:54;;;;;;;5.53;4.18;;;;;;;;;;6186218;23;20016;-91
2023/09/17 11:16:25;;;;;;;5.53;3.45;;;;;;;;;;6183801;23;20442;-91
2023/09/17 11:19:12;;;;;;;3.50;2.88;;;;;;;;;;6160624;23;20020;-93
2023/09/17 11:21:40;;;;;;;6.90;3.63;;;;;;;;;;6212594;23;20017;-91
2023/09/17 11:24:10;;;;;;;6.03;2.72;;;;;;;;;;6184831;23;20202;-91
2023/09/17 11:26:39;;;;;;;5.55;2.85;;;;;;;;;;6186784;23;20043;-90
2023/09/17 11:29:10;;;;;;;7.88;2.72;;;;;;;;;;6197078;23;20012;-90
2023/09/17 11:32:01;;;;;;;3.97;3.00;;;;;;;;;;6215345;23;20050;-91
2023/09/17 11:34:31;;;;;;;7.35;3.00;;;;;;;;;;6172167;23;20024;-91
2023/09/17 11:36:58;;;;;;;7.47;3.47;;;;;;;;;;6212271;23;20027;-90
2023/09/17 11:39:28;;;;;;;4.18;3.45;;;;;;;;;;6185141;23;20024;-90
2023/09/17 11:42:03;;;;;;;9.02;4.13;;;;;;;;;;6186221;23;20472;-91
2023/09/17 11:44:31;;;;;;;6.63;3.00;;;;;;;;;;6186224;23;20031;-90
2023/09/17 11:46:59;;;;;;;6.95;3.30;;;;;;;;;;6186891;23;20360;-91
2023/09/17 11:49:31;;;;;;;4.95;2.88;;;;;;;;;;6161801;23;20020;-90
2023/09/17 11:51:59;;;;;;;4.82;3.38;;;;;;;;;;6213949;23;20329;-91
2023/09/17 11:54:31;;;;;;;4.63;3.22;;;;;;;;;;6158951;23;20017;-90
2023/09/17 11:56:59;;;;;;;3.90;2.88;;;;;;;;;;6223784;23;20020;-90
2023/09/17 11:59:28;;;;;;;7.95;3.47;;;;;;;;;;6213342;23;20024;-90
2023/09/17 12:01:58;;;;;;;5.25;3.35;;;;;;;;;;6216007;23;20016;-90
2023/09/17 12:04:30;;;;;;;3.63;2.58;;;;;;;;;;6163349;23;20016;-91
2023/09/17 12:07:00;;;;;;;3.63;2.50;;;;;;;;;;6162108;23;20490;-91
2023/09/17 12:09:38;;;;;;;4.22;2.78;;;;;;;;;;6163678;23;20017;-92
2023/09/17 12:12:13;;;;;;;5.60;2.95;;;;;;;;;;6190978;23;20017;-90
2023/09/17 12:14:43;;;;;;;11.57;4.97;;;;;;;;;;6161781;23;20470;-91
2023/09/17 12:17:11;;;;;;;4.72;3.03;;;;;;;;;;6161942;23;20023;-94
2023/09/17 12:19:41;;;;;;;12.00;3.75;;;;;;;;;;6187503;23;20371;-91
2023/09/17 12:22:09;;;;;;;8.82;3.65;;;;;;;;;;6162636;23;20020;-91
2023/09/17 12:24:39;;;;;;;9.63;2.70;;;;;;;;;;6162006;23;20012;-91
2023/09/17 12:27:19;;;;;;;6.57;3.80;;;;;;;;;;6186942;23;20009;-90
2023/09/17 12:29:47;;;;;;;6.40;3.47;;;;;;;;;;6186785;23;20017;-91
2023/09/17 12:32:17;;;;;;;7.15;2.70;;;;;;;;;;6187443;23;20020;-91
2023/09/17 12:34:48;;;;;;;4.85;2.95;;;;;;;;;;6186226;23;20016;-91
2023/09/17 12:37:17;;;;;;;7.10;3.97;;;;;;;;;;6221904;23;20012;-92
2023/09/17 12:39:45;;;;;;;9.02;3.58;;;;;;;;;;6187205;23;20729;-90
2023/09/17 12:42:12;;;;;;;6.10;3.58;;;;;;;;;;6187589;23;20016;-90
2023/09/17 12:44:52;;;;;;;5.68;3.05;;;;;;;;;;6186347;23;20017;-92
2023/09/17 12:47:24;;;;;;;5.72;3.40;;;;;;;;;;6162049;23;20027;-94
2023/09/17 12:50:28;;;;;;;6.45;3.20;;;;;;;;;;6184664;23;20498;-90
2023/09/17 12:52:58;;;;;;;8.68;3.35;;;;;;;;;;6185560;23;20023;-91
2023/09/17 12:55:37;;;;;;;4.15;2.90;;;;;;;;;;6186776;23;20017;-90
2023/09/17 12:58:09;;;;;;;8.30;3.03;;;;;;;;;;6223101;23;20016;-91
2023/09/17 13:00:37;;;;;;;3.78;2.85;;;;;;;;;;6186877;23;20360;-90
2023/09/17 13:03:11;;;;;;;6.65;3.38;;;;;;;;;;6161563;23;20021;-91
2023/09/17 13:05:40;;;;;;;7.65;2.63;;;;;;;;;;6195519;23;20008;-93
2023/09/17 13:08:17;;;;;;;4.60;3.00;;;;;;;;;;6186044;23;20032;-90
2023/09/17 13:10:50;;;;;;;3.83;3.40;;;;;;;;;;6193422;23;20013;-90
2023/09/17 13:13:19;;;;;;;8.55;3.13;;;;;;;;;;6185953;23;20031;-90
2023/09/17 13:15:47;;;;;;;5.90;3.35;;;;;;;;;;6162156;23;20028;-92
2023/09/17 13:18:17;;;;;;;5.13;3.25;;;;;;;;;;6161510;23;20043;-91
2023/09/17 13:20:52;;;;;;;8.45;2.95;;;;;;;;;;6161945;23;20391;-90
2023/09/17 13:23:20;;;;;;;6.32;2.90;;;;;;;;;;6185200;23;20021;-90
2023/09/17 13:25:51;;;;;;;10.63;3.15;;;;;;;;;;6160638;23;20017;-90
2023/09/17 13:28:19;;;;;;;7.45;5.32;;;;;;;;;;6187408;23;20016;-93
2023/09/17 13:30:52;;;;;;;8.63;4.55;;;;;;;;;;6186902;23;20019;-93
2023/09/17 13:33:22;;;;;;;5.95;3.35;;;;;;;;;;6222183;23;20051;-92
2023/09/17 13:35:51;;;;;;;8.65;3.47;;;;;;;;;;6186888;23;20013;-94
2023/09/17 13:38:19;;;;;;;6.32;3.30;;;;;;;;;;6224117;23;20486;-94
2023/09/17 13:40:53;;;;;;;14.55;4.50;;;;;;;;;;6186469;23;20013;-94
2023/09/17 13:43:21;;;;;;;8.40;2.92;;;;;;;;;;6161841;23;20012;-93
2023/09/17 13:45:52;;;;;;;12.63;3.78;;;;;;;;;;6162489;23;20024;-94
2023/09/17 13:48:22;;;;;;;9.23;3.35;;;;;;;;;;6185517;23;20470;-92
2023/09/17 13:50:52;;;;;;;6.53;2.28;;;;;;;;;;6184831;23;20016;-93
2023/09/17 13:53:19;;;;;;;7.63;3.33;;;;;;;;;;6184380;23;20021;-93
2023/09/17 13:55:48;;;;;;;6.82;3.33;;;;;;;;;;6211756;23;20013;-93
2023/09/17 13:58:19;;;;;;;9.38;4.25;;;;;;;;;;6222537;23;20012;-93
2023/09/17 14:00:46;;;;;;;9.30;2.83;;;;;;;;;;6213324;23;20012;-93
2023/09/17 14:03:15;;;;;;;7.18;3.25;;;;;;;;;;6185288;23;20016;-93
2023/09/17 14:05:43;;;;;;;8.00;3.45;;;;;;;;;;6184039;23;20020;-93
2023/09/17 14:08:12;;;;;;;11.85;3.03;;;;;;;;;;6184352;23;20024;-94
2023/09/17 14:10:42;;;;;;;7.20;3.27;;;;;;;;;;6188340;23;20021;-94
2023/09/17 14:13:09;;;;;;;9.43;4.00;;;;;;;;;;6186177;23;20020;-92
2023/09/17 14:15:40;;;;;;;11.20;3.08;;;;;;;;;;6212013;23;20471;-93
2023/09/17 14:18:11;;;;;;;6.45;3.65;;;;;;;;;;6162307;23;20016;-94
2023/09/17 14:20:38;;;;;;;6.22;2.90;;;;;;;;;;6163134;23;20028;-93
2023/09/17 14:23:08;;;;;;;6.90;3.30;;;;;;;;;;6212405;23;20031;-94
2023/09/17 14:25:36;;;;;;;8.60;2.20;;;;;;;;;;6197344;23;20593;-93
2023/09/17 14:28:04;;;;;;;5.50;3.10;;;;;;;;;;6213492;23;20344;-93
2023/09/17 14:30:56;;;;;;;7.43;2.72;;;;;;;;;;6163622;23;20024;-93
2023/09/17 14:33:49;;;;;;;7.15;2.90;;;;;;;;;;6187843;23;20020;-93
2023/09/17 14:36:16;;;;;;;4.47;2.67;;;;;;;;;;6186875;23;20024;-93
2023/09/17 14:38:46;;;;;;;9.85;3.60;;;;;;;;;;6184424;23;20467;-92
2023/09/17 14:41:17;;;;;;;6.55;3.08;;;;;;;;;;6212965;23;20044;-93
2023/09/17 14:43:44;;;;;;;8.30;3.25;;;;;;;;;;6187004;23;20031;-93
2023/09/17 14:46:12;;;;;;;6.57;4.43;;;;;;;;;;6161167;23;20490;-92
2023/09/17 14:48:42;;;;;;;5.05;2.78;;;;;;;;;;6185763;23;20024;-93
2023/09/17 14:51:09;;;;;;;4.95;3.20;;;;;;;;;;6160775;23;20017;-93
2023/09/17 14:53:39;;;;;;;7.93;3.10;;;;;;;;;;6183457;23;20440;-92
2023/09/17 14:56:07;;;;;;;6.80;3.53;;;;;;;;;;6211951;23;20325;-92
2023/09/17 14:58:35;;;;;;;4.80;2.38;;;;;;;;;;6184932;23;20016;-94
2023/09/17 15:01:03;;;;;;;5.40;3.33;;;;;;;;;;6160087;23;20021;-93